createdAt,value
2023-02-09T00:09:57.361Z,101524.69
2023-02-09T00:25:07.297Z,101516.73
2023-02-09T00:40:17.204Z,101492.16
2023-02-09T00:55:26.647Z,101482.67
2023-02-09T01:10:36.172Z,101470.95
2023-02-09T01:25:45.333Z,101456.04
2023-02-09T01:40:55.049Z,101435.45
2023-02-09T01:56:06.422Z,101412.81
2023-02-09T02:11:16.636Z,101405.22
2023-02-09T02:26:39.412Z,101393.56
2023-02-09T02:42:08.425Z,101381.64
2023-02-09T02:57:19.007Z,101368.36
2023-02-09T03:12:29.725Z,101358.87
2023-02-09T03:27:39.458Z,101350.40
2023-02-09T03:42:48.076Z,101337.77
2023-02-09T03:57:57.236Z,101319.80
2023-02-09T04:13:06.826Z,101308.05
2023-02-09T04:28:16.422Z,101313.39
2023-02-09T04:43:25.898Z,101302.34
2023-02-09T04:58:52.147Z,101288.29
2023-02-09T05:14:01.964Z,101278.73
2023-02-09T05:29:10.535Z,101273.79
2023-02-09T05:44:19.762Z,101269.09
2023-02-09T05:59:28.707Z,101261.73
2023-02-09T06:14:38.679Z,101247.23
2023-02-09T06:29:48.912Z,101238.05
2023-02-09T06:44:59.869Z,101240.30
2023-02-09T07:00:10.721Z,101245.76
2023-02-09T07:15:19.474Z,101238.05
2023-02-09T07:30:28.293Z,101226.98
2023-02-09T07:45:37.102Z,101204.28
2023-02-09T08:00:47.326Z,101195.23
2023-02-09T08:15:57.762Z,101189.23
2023-02-09T08:31:07.381Z,101188.88
2023-02-09T08:46:17.187Z,101185.66
2023-02-09T09:01:26.162Z,101189.61
2023-02-09T09:16:35.680Z,101179.63
2023-02-09T09:31:45.429Z,101188.48
2023-02-09T09:46:55.838Z,101189.75
2023-02-09T10:02:14.245Z,101187.48
2023-02-09T10:17:23.822Z,101188.41
2023-02-09T10:32:39.746Z,101165.11
2023-02-09T10:47:50.807Z,101145.39
2023-02-09T11:03:01.999Z,101138.42
2023-02-09T11:18:13.242Z,101128.11
2023-02-09T11:33:23.781Z,101114.41
2023-02-09T11:48:32.940Z,101106.11
2023-02-09T12:03:42.363Z,101091.48
2023-02-09T12:18:51.234Z,101076.48
2023-02-09T12:34:10.990Z,101057.55
2023-02-09T12:49:23.641Z,101041.63
2023-02-09T13:04:33.474Z,101030.33
2023-02-09T13:19:53.083Z,101009.52
2023-02-09T13:35:04.260Z,101007.93
2023-02-09T13:50:16.149Z,100997.85
2023-02-09T14:05:28.673Z,100977.92
2023-02-09T14:20:37.928Z,100954.25
2023-02-09T14:35:47.545Z,100950.35
2023-02-09T14:50:57.561Z,100954.58
2023-02-09T15:06:06.769Z,100954.42
2023-02-09T15:21:16.277Z,100952.61
2023-02-09T15:36:25.275Z,100952.12
2023-02-09T15:51:34.598Z,100929.91
2023-02-09T16:06:44.009Z,100944.81
2023-02-09T16:21:53.265Z,100949.52
2023-02-09T16:37:02.471Z,100939.49
2023-02-09T16:52:14.731Z,100930.15
2023-02-09T17:07:24.017Z,100916.55
2023-02-09T17:22:33.322Z,100924.92
2023-02-09T17:37:42.631Z,100905.45
2023-02-09T17:52:51.551Z,100920.65
2023-02-09T18:08:00.727Z,100949.99
2023-02-09T18:23:11.953Z,100954.86
2023-02-09T18:38:23.817Z,100966.30
2023-02-09T18:53:35.193Z,100969.54
2023-02-09T19:08:44.257Z,100987.84
2023-02-09T19:23:55.522Z,100976.99
2023-02-09T19:39:08.170Z,100966.45
2023-02-09T19:54:21.261Z,100966.36
2023-02-09T20:09:40.409Z,100976.17
2023-02-09T20:24:59.554Z,100975.29
2023-02-09T20:40:19.843Z,100978.95
2023-02-09T20:55:36.665Z,100979.00
2023-02-09T21:10:58.517Z,100975.66
2023-02-09T21:26:12.757Z,100975.67
2023-02-09T21:41:42.498Z,100970.61
2023-02-09T21:56:56.638Z,100980.83
2023-02-09T22:12:12.233Z,100997.23
2023-02-09T22:27:23.692Z,101000.41
2023-02-09T22:42:36.561Z,100996.23
2023-02-09T22:57:47.015Z,100993.01
2023-02-09T23:12:56.365Z,100989.95
2023-02-09T23:28:05.937Z,100998.91
2023-02-09T23:43:14.640Z,101000.35
2023-02-09T23:58:23.920Z,101020.10
